createdAt,value
2022-09-23T00:03:13.856Z,13.47
2022-09-23T00:05:40.816Z,12.50
2022-09-23T00:08:10.587Z,13.70
2022-09-23T00:10:39.939Z,13.10
2022-09-23T00:13:07.222Z,10.65
2022-09-23T00:15:41.196Z,11.10
2022-09-23T00:18:08.233Z,13.50
2022-09-23T00:20:36.461Z,11.23
2022-09-23T00:23:03.796Z,12.27
2022-09-23T00:25:30.564Z,11.10
2022-09-23T00:27:57.613Z,10.65
2022-09-23T00:30:24.724Z,10.88
2022-09-23T00:32:53.082Z,10.45
2022-09-23T00:35:20.419Z,8.45
2022-09-23T00:37:47.484Z,9.98
2022-09-23T00:40:15.355Z,9.73
2022-09-23T00:42:49.984Z,12.13
2022-09-23T00:45:19.817Z,12.50
2022-09-23T00:47:58.371Z,11.98
2022-09-23T00:50:36.816Z,9.88
2022-09-23T00:53:08.268Z,9.45
2022-09-23T00:55:43.186Z,12.82
2022-09-23T00:58:15.386Z,9.45
2022-09-23T01:00:42.627Z,9.13
2022-09-23T01:03:10.822Z,11.15
2022-09-23T01:05:38.823Z,8.23
2022-09-23T01:08:07.474Z,11.90
2022-09-23T01:10:49.774Z,9.27
2022-09-23T01:13:37.963Z,10.50
2022-09-23T01:16:13.749Z,14.18
2022-09-23T01:18:53.333Z,10.85
2022-09-23T01:21:37.937Z,14.35
2022-09-23T01:24:08.026Z,12.63
2022-09-23T01:27:01.173Z,13.20
2022-09-23T01:29:53.926Z,10.90
2022-09-23T01:32:49.023Z,11.52
2022-09-23T01:35:40.410Z,12.50
2022-09-23T01:38:19.055Z,12.73
2022-09-23T01:40:51.286Z,9.35
2022-09-23T01:43:24.437Z,13.55
2022-09-23T01:45:57.875Z,8.50
2022-09-23T01:49:09.927Z,11.55
2022-09-23T01:51:41.962Z,9.43
2022-09-23T01:54:18.518Z,9.55
2022-09-23T01:59:29.411Z,10.45
2022-09-23T02:02:04.364Z,10.02
2022-09-23T02:05:06.022Z,9.07
2022-09-23T02:07:48.366Z,7.28
2022-09-23T02:11:01.136Z,9.00
2022-09-23T02:13:51.388Z,10.20
2022-09-23T02:16:42.860Z,7.95
2022-09-23T02:19:51.458Z,10.63
2022-09-23T02:22:30.124Z,9.60
2022-09-23T02:24:58.189Z,9.07
2022-09-23T02:27:25.947Z,8.65
2022-09-23T02:30:00.670Z,8.45
2022-09-23T02:32:54.700Z,9.40
2022-09-23T02:35:33.174Z,9.05
2022-09-23T02:38:16.264Z,8.38
2022-09-23T02:40:54.678Z,11.13
2022-09-23T02:43:40.191Z,8.88
2022-09-23T02:46:07.916Z,9.35
2022-09-23T02:48:50.108Z,11.07
2022-09-23T02:51:17.228Z,11.10
2022-09-23T02:53:45.950Z,8.65
2022-09-23T02:56:19.755Z,11.50
2022-09-23T02:58:51.959Z,10.23
2022-09-23T03:02:07.139Z,11.93
2022-09-23T03:04:50.278Z,8.27
2022-09-23T03:07:33.327Z,8.88
2022-09-23T03:10:31.175Z,11.63
2022-09-23T03:13:31.436Z,9.30
2022-09-23T03:16:32.448Z,10.52
2022-09-23T03:19:08.265Z,9.95
2022-09-23T03:21:46.703Z,9.70
2022-09-23T03:24:15.795Z,10.05
2022-09-23T03:26:47.106Z,10.10
2022-09-23T03:29:16.215Z,8.65
2022-09-23T03:31:44.829Z,12.05
2022-09-23T03:34:18.238Z,7.20
2022-09-23T03:37:03.083Z,6.78
2022-09-23T03:39:37.451Z,7.38
2022-09-23T03:42:12.814Z,6.80
2022-09-23T03:44:47.966Z,7.85
2022-09-23T03:47:17.064Z,7.32
2022-09-23T03:49:48.515Z,9.15
2022-09-23T03:52:17.172Z,7.68
2022-09-23T03:54:44.513Z,11.70
2022-09-23T03:57:12.663Z,10.65
2022-09-23T03:59:40.047Z,10.57
2022-09-23T04:02:08.088Z,11.07
2022-09-23T04:04:40.314Z,6.93
2022-09-23T04:07:07.380Z,8.30
2022-09-23T04:09:34.943Z,5.78
2022-09-23T04:12:01.974Z,9.18
2022-09-23T04:14:28.875Z,8.23
2022-09-23T04:16:56.197Z,8.52
2022-09-23T04:19:23.112Z,8.15
2022-09-23T04:21:50.320Z,7.57
2022-09-23T04:24:17.788Z,10.25
2022-09-23T04:26:44.759Z,14.25
2022-09-23T04:29:12.117Z,9.98
2022-09-23T04:31:39.469Z,11.13
2022-09-23T04:34:07.069Z,12.27
2022-09-23T04:36:33.890Z,10.82
2022-09-23T04:39:01.235Z,12.77
2022-09-23T04:41:28.383Z,12.88
2022-09-23T04:43:57.422Z,11.75
2022-09-23T04:46:24.947Z,7.00
2022-09-23T04:48:51.818Z,16.85
2022-09-23T04:51:22.023Z,11.50
2022-09-23T04:53:52.109Z,12.43
2022-09-23T04:56:29.265Z,12.02
2022-09-23T04:58:59.026Z,8.98
2022-09-23T05:01:31.579Z,9.65
2022-09-23T05:04:02.604Z,6.80
2022-09-23T05:06:36.744Z,10.57
2022-09-23T05:09:08.031Z,8.23
2022-09-23T05:11:35.566Z,8.05
2022-09-23T05:14:02.934Z,6.63
2022-09-23T05:16:29.967Z,7.10
2022-09-23T05:18:57.751Z,10.65
2022-09-23T05:21:27.594Z,9.07
2022-09-23T05:23:59.117Z,7.75
2022-09-23T05:26:28.551Z,6.40
2022-09-23T05:28:55.949Z,17.05
2022-09-23T05:31:25.383Z,19.00
2022-09-23T05:33:55.526Z,20.10
2022-09-23T05:36:23.498Z,17.48
2022-09-23T05:38:51.450Z,11.85
2022-09-23T05:41:20.982Z,12.05
2022-09-23T05:43:47.875Z,15.20
2022-09-23T05:46:29.672Z,10.52
2022-09-23T05:49:02.119Z,8.20
2022-09-23T05:51:31.352Z,13.50
2022-09-23T05:53:59.487Z,9.93
2022-09-23T05:56:28.099Z,9.30
2022-09-23T05:58:57.360Z,6.88
2022-09-23T06:01:27.243Z,11.55
2022-09-23T06:03:56.209Z,8.23
2022-09-23T06:06:31.962Z,12.90
2022-09-23T06:09:02.796Z,6.57
2022-09-23T06:11:35.087Z,12.10
2022-09-23T06:14:02.971Z,10.95
2022-09-23T06:16:32.568Z,14.75
2022-09-23T06:19:07.002Z,10.68
2022-09-23T06:21:36.787Z,13.20
2022-09-23T06:24:04.812Z,15.25
2022-09-23T06:26:35.263Z,12.02
2022-09-23T06:29:04.583Z,9.45
2022-09-23T06:31:33.260Z,8.57
2022-09-23T06:34:09.727Z,10.25
2022-09-23T06:36:43.923Z,8.65
2022-09-23T06:39:11.263Z,9.75
2022-09-23T06:41:39.309Z,6.28
2022-09-23T06:44:06.376Z,8.57
2022-09-23T06:46:33.716Z,7.60
2022-09-23T06:49:02.205Z,7.18
2022-09-23T06:51:29.053Z,12.32
2022-09-23T06:53:56.155Z,11.15
2022-09-23T06:56:23.824Z,10.35
2022-09-23T06:58:52.409Z,11.00
2022-09-23T07:01:20.076Z,8.82
2022-09-23T07:03:48.536Z,8.65
2022-09-23T07:06:17.282Z,8.25
2022-09-23T07:08:49.452Z,6.80
2022-09-23T07:11:19.441Z,6.18
2022-09-23T07:13:46.246Z,8.57
2022-09-23T07:16:13.336Z,6.28
2022-09-23T07:18:41.226Z,8.63
2022-09-23T07:21:13.832Z,6.38
2022-09-23T07:23:46.175Z,7.00
2022-09-23T07:26:13.898Z,6.72
2022-09-23T07:28:41.104Z,7.55
2022-09-23T07:31:10.817Z,6.97
2022-09-23T07:33:39.932Z,5.85
2022-09-23T07:36:17.430Z,8.82
2022-09-23T07:38:45.932Z,5.30
2022-09-23T07:41:16.269Z,5.13
2022-09-23T07:43:44.331Z,8.40
2022-09-23T07:46:16.942Z,11.65
2022-09-23T07:48:46.048Z,6.45
2022-09-23T07:51:19.057Z,6.47
2022-09-23T07:53:50.822Z,6.07
2022-09-23T07:56:19.555Z,5.38
2022-09-23T07:59:03.104Z,5.97
2022-09-23T08:01:38.844Z,8.60
2022-09-23T08:04:13.950Z,7.00
2022-09-23T08:06:43.090Z,10.63
2022-09-23T08:09:10.669Z,6.82
2022-09-23T08:11:42.252Z,4.72
2022-09-23T08:14:14.210Z,4.53
2022-09-23T08:16:42.377Z,13.82
2022-09-23T08:19:09.467Z,4.38
2022-09-23T08:21:39.477Z,3.90
2022-09-23T08:24:13.531Z,5.30
2022-09-23T08:26:40.504Z,3.25
2022-09-23T08:29:10.906Z,4.70
2022-09-23T08:31:37.955Z,6.45
2022-09-23T08:34:05.191Z,5.65
2022-09-23T08:36:32.267Z,6.65
2022-09-23T08:38:59.255Z,7.63
2022-09-23T08:42:02.749Z,6.00
2022-09-23T08:44:53.549Z,4.95
2022-09-23T08:47:24.855Z,4.47
2022-09-23T08:49:57.392Z,5.85
2022-09-23T08:52:33.007Z,6.95
2022-09-23T08:55:00.021Z,6.33
2022-09-23T08:58:02.221Z,7.60
2022-09-23T09:00:42.252Z,6.47
2022-09-23T09:04:01.224Z,4.30
2022-09-23T09:06:51.718Z,8.32
2022-09-23T09:09:34.087Z,3.72
2022-09-23T09:12:14.276Z,3.15
2022-09-23T09:15:11.066Z,4.53
2022-09-23T09:17:39.975Z,6.53
2022-09-23T09:20:17.589Z,2.70
2022-09-23T09:23:00.087Z,3.70
2022-09-23T09:25:39.207Z,4.97
2022-09-23T09:28:40.935Z,7.68
2022-09-23T09:31:21.475Z,5.70
2022-09-23T09:33:58.539Z,5.72
2022-09-23T09:36:54.375Z,4.88
2022-09-23T09:39:25.989Z,3.25
2022-09-23T09:41:55.597Z,3.42
2022-09-23T09:44:37.339Z,3.20
2022-09-23T09:47:28.597Z,4.40
2022-09-23T09:50:41.702Z,2.70
2022-09-23T09:53:24.038Z,2.95
2022-09-23T09:56:04.889Z,3.75
2022-09-23T09:58:55.347Z,1.70
2022-09-23T10:01:30.333Z,4.40
2022-09-23T10:04:01.115Z,3.97
2022-09-23T10:06:31.889Z,6.47
2022-09-23T10:09:04.707Z,5.85
2022-09-23T10:11:33.124Z,5.28
2022-09-23T10:14:02.435Z,3.97
2022-09-23T10:16:37.408Z,7.72
2022-09-23T10:19:30.771Z,4.80
2022-09-23T10:22:04.905Z,8.48
2022-09-23T10:24:36.527Z,8.25
2022-09-23T10:27:14.129Z,5.88
2022-09-23T10:29:48.643Z,3.63
2022-09-23T10:32:37.729Z,3.85
2022-09-23T10:35:09.134Z,4.65
2022-09-23T10:37:41.099Z,3.33
2022-09-23T10:40:35.849Z,2.38
2022-09-23T10:43:45.849Z,2.53
2022-09-23T10:46:47.683Z,3.30
2022-09-23T10:49:33.661Z,6.22
2022-09-23T10:52:03.427Z,4.55
2022-09-23T10:54:36.284Z,3.63
2022-09-23T10:57:41.875Z,3.63
2022-09-23T11:00:23.487Z,2.78
2022-09-23T11:03:25.619Z,6.22
2022-09-23T11:06:35.708Z,6.65
2022-09-23T11:09:14.324Z,12.13
2022-09-23T11:12:04.719Z,9.20
2022-09-23T11:14:51.697Z,7.93
2022-09-23T11:17:40.230Z,4.55
2022-09-23T11:20:23.259Z,6.00
2022-09-23T11:23:26.638Z,5.60
2022-09-23T11:26:32.755Z,4.72
2022-09-23T11:29:02.539Z,5.40
2022-09-23T11:32:20.520Z,7.32
2022-09-23T11:35:13.331Z,4.30
2022-09-23T11:37:45.718Z,6.55
2022-09-23T11:40:19.475Z,4.00
2022-09-23T11:43:18.767Z,4.72
2022-09-23T11:45:58.623Z,4.90
2022-09-23T11:48:44.238Z,5.93
2022-09-23T11:51:23.622Z,6.72
2022-09-23T11:53:57.932Z,11.13
2022-09-23T11:56:38.061Z,10.07
2022-09-23T11:59:10.460Z,10.80
2022-09-23T12:01:47.404Z,8.50
2022-09-23T12:04:48.428Z,9.10
2022-09-23T12:07:29.443Z,4.78
2022-09-23T12:10:03.929Z,13.15
2022-09-23T12:12:39.895Z,5.18
2022-09-23T12:15:21.994Z,4.75
2022-09-23T12:18:19.641Z,5.25
2022-09-23T12:21:49.220Z,6.43
2022-09-23T12:24:25.896Z,7.03
2022-09-23T12:26:57.583Z,4.47
2022-09-23T12:31:55.918Z,7.47
2022-09-23T12:34:33.304Z,5.25
2022-09-23T12:37:04.856Z,8.18
2022-09-23T12:39:35.653Z,5.65
2022-09-23T12:42:05.619Z,5.43
2022-09-23T12:44:42.349Z,5.47
2022-09-23T12:47:15.302Z,5.53
2022-09-23T12:49:43.614Z,5.47
2022-09-23T12:52:16.854Z,6.70
2022-09-23T12:54:51.872Z,4.03
2022-09-23T12:57:21.740Z,11.63
2022-09-23T12:59:51.653Z,9.43
2022-09-23T13:02:30.312Z,6.10
2022-09-23T13:05:21.951Z,3.92
2022-09-23T13:07:51.088Z,5.03
2022-09-23T13:10:48.930Z,8.40
2022-09-23T13:13:41.171Z,5.15
2022-09-23T13:16:14.373Z,10.98
2022-09-23T13:18:55.987Z,4.40
2022-09-23T13:21:47.642Z,4.35
2022-09-23T13:24:43.207Z,4.78
2022-09-23T13:27:22.499Z,5.35
2022-09-23T13:30:15.774Z,6.22
2022-09-23T13:32:50.167Z,10.38
2022-09-23T13:35:27.413Z,3.45
2022-09-23T13:37:54.591Z,4.03
2022-09-23T13:40:25.865Z,7.20
2022-09-23T13:42:59.681Z,3.38
2022-09-23T13:45:28.516Z,10.10
2022-09-23T13:48:06.218Z,4.40
2022-09-23T13:50:38.638Z,5.18
2022-09-23T13:53:18.915Z,9.57
2022-09-23T13:55:50.207Z,5.70
2022-09-23T13:58:21.915Z,2.80
2022-09-23T14:00:52.007Z,5.65
2022-09-23T14:03:39.405Z,3.88
2022-09-23T14:06:14.405Z,3.28
2022-09-23T14:08:45.929Z,2.58
2022-09-23T14:11:22.008Z,4.05
2022-09-23T14:13:54.453Z,6.82
2022-09-23T14:16:25.515Z,4.90
2022-09-23T14:18:56.881Z,5.80
2022-09-23T14:21:35.880Z,4.82
2022-09-23T14:24:13.704Z,5.50
2022-09-23T14:26:43.254Z,4.47
2022-09-23T14:29:20.370Z,4.32
2022-09-23T14:31:59.986Z,2.75
2022-09-23T14:34:52.689Z,2.85
2022-09-23T14:38:03.206Z,3.30
2022-09-23T14:40:33.762Z,12.15
2022-09-23T14:43:06.546Z,3.30
2022-09-23T14:45:38.825Z,4.32
2022-09-23T14:48:09.926Z,4.13
2022-09-23T14:50:37.285Z,4.47
2022-09-23T14:53:20.223Z,3.55
2022-09-23T14:55:48.836Z,4.63
2022-09-23T14:58:17.648Z,5.25
2022-09-23T15:01:01.384Z,6.22
2022-09-23T15:03:29.022Z,4.68
2022-09-23T15:06:08.343Z,6.93
2022-09-23T15:08:36.141Z,13.43
2022-09-23T15:11:08.017Z,6.25
2022-09-23T15:13:41.778Z,14.60
2022-09-23T15:16:08.687Z,20.02
2022-09-23T15:18:38.689Z,12.32
2022-09-23T15:21:17.920Z,7.57
2022-09-23T15:23:47.825Z,8.73
2022-09-23T15:26:20.086Z,8.35
2022-09-23T15:28:48.236Z,4.82
2022-09-23T15:31:20.082Z,5.38
2022-09-23T15:33:48.443Z,5.85
2022-09-23T15:36:26.033Z,7.40
2022-09-23T15:38:55.344Z,5.25
2022-09-23T15:41:24.211Z,6.07
2022-09-23T15:43:51.659Z,4.78
2022-09-23T15:46:25.515Z,7.35
2022-09-23T15:49:00.215Z,8.75
2022-09-23T15:51:28.539Z,8.45
2022-09-23T15:53:56.550Z,9.55
2022-09-23T15:56:24.825Z,10.38
2022-09-23T15:58:51.708Z,10.73
2022-09-23T16:01:30.752Z,9.90
2022-09-23T16:04:01.401Z,8.60
2022-09-23T16:06:28.461Z,8.68
2022-09-23T16:08:55.814Z,10.27
2022-09-23T16:11:26.972Z,7.68
2022-09-23T16:13:53.903Z,7.53
2022-09-23T16:16:23.814Z,10.50
2022-09-23T16:18:53.482Z,10.57
2022-09-23T16:21:24.081Z,9.70
2022-09-23T16:23:51.658Z,10.65
2022-09-23T16:26:39.975Z,12.57
2022-09-23T16:29:07.012Z,16.52
2022-09-23T16:31:34.065Z,31.48
2022-09-23T16:34:02.473Z,50.08
2022-09-23T16:36:39.643Z,35.30
2022-09-23T16:39:10.154Z,23.27
2022-09-23T16:41:37.265Z,18.13
2022-09-23T16:44:07.508Z,22.58
2022-09-23T16:46:35.432Z,18.90
2022-09-23T16:49:02.988Z,16.70
2022-09-23T16:51:38.658Z,13.80
2022-09-23T16:54:11.961Z,18.77
2022-09-23T16:56:45.346Z,17.45
2022-09-23T16:59:13.614Z,12.30
2022-09-23T17:01:59.392Z,13.60
2022-09-23T17:04:27.764Z,17.02
2022-09-23T17:06:56.185Z,21.23
2022-09-23T17:09:28.721Z,26.95
2022-09-23T17:12:08.136Z,16.50
2022-09-23T17:14:35.278Z,16.73
2022-09-23T17:17:02.235Z,20.65
2022-09-23T17:19:29.468Z,18.67
2022-09-23T17:21:56.353Z,19.77
2022-09-23T17:24:23.716Z,21.35
2022-09-23T17:26:53.322Z,23.65
2022-09-23T17:29:20.384Z,27.95
2022-09-23T17:31:47.251Z,22.13
2022-09-23T17:34:16.285Z,25.85
2022-09-23T17:36:43.192Z,25.95
2022-09-23T17:39:10.009Z,31.83
2022-09-23T17:41:39.194Z,33.33
2022-09-23T17:44:06.112Z,31.90
2022-09-23T17:46:32.952Z,28.17
2022-09-23T17:48:59.779Z,32.35
2022-09-23T17:51:26.832Z,33.80
2022-09-23T17:53:53.713Z,31.75
2022-09-23T17:56:22.814Z,33.05
2022-09-23T17:58:50.790Z,31.23
2022-09-23T18:01:23.378Z,34.08
2022-09-23T18:03:59.468Z,30.98
2022-09-23T18:06:28.915Z,32.40
2022-09-23T18:08:58.371Z,38.92
2022-09-23T18:11:28.401Z,35.50
2022-09-23T18:14:00.848Z,36.22
2022-09-23T18:16:35.430Z,38.63
2022-09-23T18:19:03.848Z,34.30
2022-09-23T18:21:33.642Z,36.83
2022-09-23T18:26:49.867Z,33.80
2022-09-23T18:29:17.219Z,33.22
2022-09-23T18:31:45.267Z,31.83
2022-09-23T18:34:15.015Z,35.80
2022-09-23T18:36:42.148Z,32.83
2022-09-23T18:39:09.186Z,38.08
2022-09-23T18:41:36.348Z,32.10
2022-09-23T18:44:03.963Z,32.63
2022-09-23T18:46:31.561Z,32.58
2022-09-23T18:49:17.566Z,32.83
2022-09-23T18:51:51.160Z,33.22
2022-09-23T18:54:19.618Z,32.78
2022-09-23T18:56:46.738Z,36.47
2022-09-23T18:59:19.661Z,36.47
2022-09-23T19:01:50.000Z,35.45
2022-09-23T19:04:18.976Z,38.10
2022-09-23T19:06:46.167Z,39.40
2022-09-23T19:09:14.493Z,36.50
2022-09-23T19:11:41.955Z,41.60
2022-09-23T19:14:11.621Z,37.65
2022-09-23T19:16:40.142Z,31.02
2022-09-23T19:19:07.557Z,30.40
2022-09-23T19:21:34.797Z,32.85
2022-09-23T19:24:07.161Z,39.55
2022-09-23T19:26:39.702Z,32.33
2022-09-23T19:29:08.603Z,32.95
2022-09-23T19:31:40.367Z,34.80
2022-09-23T19:34:19.244Z,35.90
2022-09-23T19:36:47.475Z,41.78
2022-09-23T19:39:20.151Z,35.60
2022-09-23T19:41:47.286Z,39.25
2022-09-23T19:44:14.839Z,36.10
2022-09-23T19:46:45.448Z,34.08
2022-09-23T19:49:13.117Z,38.40
2022-09-23T19:51:40.735Z,40.50
2022-09-23T19:54:08.187Z,42.67
2022-09-23T19:56:36.072Z,38.60
2022-09-23T19:59:40.475Z,35.28
2022-09-23T20:02:09.451Z,33.38
2022-09-23T20:04:36.279Z,34.40
2022-09-23T20:07:04.815Z,35.28
2022-09-23T20:09:34.225Z,33.72
2022-09-23T20:12:02.599Z,34.95
2022-09-23T20:14:29.845Z,33.08
2022-09-23T20:16:56.642Z,34.53
2022-09-23T20:19:23.625Z,30.85
2022-09-23T20:22:10.416Z,37.20
2022-09-23T20:24:37.304Z,41.72
2022-09-23T20:27:09.944Z,40.15
2022-09-23T20:29:37.736Z,45.35
2022-09-23T20:32:04.814Z,44.88
2022-09-23T20:34:33.713Z,44.03
2022-09-23T20:37:01.155Z,49.63
2022-09-23T20:39:28.433Z,50.05
2022-09-23T20:41:55.298Z,50.85
2022-09-23T20:44:24.687Z,53.95
2022-09-23T20:46:52.054Z,48.15
2022-09-23T20:49:19.923Z,50.53
2022-09-23T20:51:50.586Z,44.45
2022-09-23T20:54:21.167Z,43.55
2022-09-23T20:56:48.975Z,45.63
2022-09-23T20:59:17.947Z,43.40
2022-09-23T21:01:45.794Z,50.72
2022-09-23T21:04:12.853Z,48.35
2022-09-23T21:06:39.966Z,46.03
2022-09-23T21:09:07.443Z,42.05
2022-09-23T21:11:34.474Z,44.50
2022-09-23T21:14:02.975Z,44.20
2022-09-23T21:16:30.746Z,47.53
2022-09-23T21:18:58.546Z,48.38
2022-09-23T21:21:27.613Z,40.38
2022-09-23T21:23:54.739Z,39.50
2022-09-23T21:26:23.931Z,34.13
2022-09-23T21:28:57.632Z,36.65
2022-09-23T21:31:27.377Z,34.28
2022-09-23T21:33:55.228Z,29.58
2022-09-23T21:36:24.403Z,30.55
2022-09-23T21:38:51.615Z,31.15
2022-09-23T21:41:18.729Z,29.23
2022-09-23T21:43:45.785Z,31.15
2022-09-23T21:46:15.475Z,31.05
2022-09-23T21:48:43.147Z,35.47
2022-09-23T21:51:19.386Z,33.85
2022-09-23T21:53:46.664Z,31.13
2022-09-23T21:56:22.249Z,31.88
2022-09-23T21:58:51.448Z,30.07
2022-09-23T22:01:27.320Z,33.25
2022-09-23T22:03:56.722Z,34.42
2022-09-23T22:06:30.721Z,31.92
2022-09-23T22:09:01.456Z,31.85
2022-09-23T22:11:51.789Z,35.50
2022-09-23T22:14:20.655Z,31.35
2022-09-23T22:16:47.805Z,29.92
2022-09-23T22:19:15.746Z,32.47
2022-09-23T22:21:44.324Z,27.20
2022-09-23T22:24:12.671Z,27.15
2022-09-23T22:26:42.137Z,23.75
2022-09-23T22:29:33.904Z,24.08
2022-09-23T22:32:21.024Z,26.25
2022-09-23T22:37:26.555Z,27.83
2022-09-23T22:39:54.157Z,25.73
2022-09-23T22:42:24.243Z,27.92
2022-09-23T22:44:51.862Z,27.05
2022-09-23T22:47:20.220Z,25.02
2022-09-23T22:49:48.163Z,27.55
2022-09-23T22:52:21.245Z,25.48
2022-09-23T22:54:48.313Z,19.88
2022-09-23T22:57:15.411Z,21.85
2022-09-23T22:59:48.169Z,23.98
2022-09-23T23:02:17.992Z,24.30
2022-09-23T23:04:47.252Z,21.63
2022-09-23T23:07:16.377Z,24.23
2022-09-23T23:09:43.346Z,29.70
2022-09-23T23:12:10.238Z,20.55
2022-09-23T23:14:38.199Z,20.45
2022-09-23T23:17:07.698Z,23.25
2022-09-23T23:19:36.202Z,18.63
2022-09-23T23:22:05.023Z,19.20
2022-09-23T23:24:32.761Z,21.33
2022-09-23T23:26:59.689Z,17.13
2022-09-23T23:29:27.922Z,20.10
2022-09-23T23:31:55.080Z,18.83
2022-09-23T23:34:22.278Z,14.68
2022-09-23T23:36:55.104Z,17.15
2022-09-23T23:39:26.490Z,19.30
2022-09-23T23:41:58.013Z,17.27
2022-09-23T23:44:26.525Z,18.30
2022-09-23T23:46:54.735Z,14.63
2022-09-23T23:49:22.387Z,15.38
2022-09-23T23:51:55.200Z,15.68
2022-09-23T23:54:22.250Z,17.48
2022-09-23T23:56:49.333Z,16.48
2022-09-23T23:59:16.360Z,17.02
